Time;durP1;ratioP1;P1;durP2;ratioP2;P2;SDS_P1;SDS_P2;PMS_P1;PMS_P2;Temp;Humidity;BMP_temperature;BMP_pressure;BME280_temperature;BME280_humidity;BME280_pressure;Samples;Min_cycle;Max_cycle;Signal;HPM_P1;HPM_P2
2021/03/31 00:00:25;;;;;;;16.38;5.97;;;;;;;6.20;100.00;97042.69;1031748;28;20109;-57
2021/03/31 00:00:55;;;;;;;10.63;6.10;;;;;;;6.19;100.00;97039.25;1031597;28;20021;-57
2021/03/31 00:01:26;;;;;;;14.07;6.05;;;;;;;6.20;100.00;97046.19;1035639;28;20431;-57
2021/03/31 00:01:57;;;;;;;13.55;6.85;;;;;;;6.18;100.00;97034.94;1039886;28;20423;-57
2021/03/31 00:02:28;;;;;;;14.18;6.38;;;;;;;6.13;100.00;97042.38;1035713;28;20006;-57
2021/03/31 00:03:00;;;;;;;12.20;5.85;;;;;;;6.11;100.00;97033.72;1039768;28;20041;-57
2021/03/31 00:03:32;;;;;;;15.30;6.28;;;;;;;6.10;100.00;97037.34;1035453;28;20014;-57
2021/03/31 00:04:02;;;;;;;13.07;6.43;;;;;;;6.10;100.00;97039.97;1039844;28;20013;-59
2021/03/31 00:04:34;;;;;;;14.73;5.88;;;;;;;6.11;100.00;97043.44;1039773;28;20499;-57
2021/03/31 00:05:06;;;;;;;14.57;6.40;;;;;;;6.09;100.00;97035.66;1031733;28;20029;-58
2021/03/31 00:05:36;;;;;;;12.98;6.38;;;;;;;6.07;100.00;97039.38;1035580;28;20014;-58
2021/03/31 00:06:07;;;;;;;11.90;6.25;;;;;;;6.04;100.00;97033.41;1035793;28;20014;-57
2021/03/31 00:06:38;;;;;;;14.85;6.18;;;;;;;6.01;100.00;97031.00;1031589;28;20599;-56
2021/03/31 00:07:10;;;;;;;11.88;6.32;;;;;;;6.04;100.00;97036.03;1027639;28;20014;-58
2021/03/31 00:07:40;;;;;;;10.98;6.00;;;;;;;6.07;100.00;97034.09;1031513;28;20041;-57
2021/03/31 00:08:11;;;;;;;13.15;6.63;;;;;;;6.07;100.00;97037.56;1031739;28;20535;-58
2021/03/31 00:08:42;;;;;;;10.15;5.72;;;;;;;6.06;100.00;97029.78;1031577;28;20025;-57
2021/03/31 00:09:13;;;;;;;10.35;5.97;;;;;;;6.07;100.00;97042.03;1031722;28;20025;-56
2021/03/31 00:09:44;;;;;;;12.13;6.10;;;;;;;6.06;100.00;97035.91;1031529;28;20018;-57
2021/03/31 00:10:25;;;;;;;14.45;6.50;;;;;;;6.04;100.00;97035.16;1031955;28;20041;-57
2021/03/31 00:10:56;;;;;;;13.95;5.53;;;;;;;6.06;100.00;97037.69;1030917;28;20049;-57
2021/03/31 00:11:26;;;;;;;10.48;6.75;;;;;;;6.04;100.00;97037.81;1038982;28;20076;-56
2021/03/31 00:11:57;;;;;;;11.52;5.28;;;;;;;6.03;100.00;97036.16;1039738;28;20021;-57
2021/03/31 00:12:28;;;;;;;10.40;5.95;;;;;;;6.02;100.00;97034.47;1031681;28;20101;-57
2021/03/31 00:12:59;;;;;;;10.32;6.05;;;;;;;6.01;100.00;97032.78;1031744;28;20022;-57
2021/03/31 00:13:29;;;;;;;9.65;5.85;;;;;;;6.01;100.00;97033.63;1031514;28;20519;-56
2021/03/31 00:14:00;;;;;;;14.30;5.57;;;;;;;6.00;100.00;97029.28;1027527;28;20121;-56
2021/03/31 00:14:31;;;;;;;13.15;6.90;;;;;;;6.00;100.00;97031.09;1027763;28;20411;-57
2021/03/31 00:15:02;;;;;;;11.30;5.68;;;;;;;6.00;100.00;97036.38;1031650;28;20477;-57
2021/03/31 00:15:32;;;;;;;14.65;6.28;;;;;;;5.94;100.00;97032.41;1031628;28;20025;-57
2021/03/31 00:16:03;;;;;;;11.02;6.45;;;;;;;5.93;100.00;97027.25;1031577;28;20025;-56
2021/03/31 00:16:34;;;;;;;16.92;6.60;;;;;;;5.97;100.00;97036.63;1035801;28;20145;-56
2021/03/31 00:17:05;;;;;;;12.18;6.20;;;;;;;5.94;100.00;97027.13;1039849;28;20438;-58
2021/03/31 00:17:35;;;;;;;13.35;6.57;;;;;;;5.96;100.00;97029.69;1035827;28;20098;-57
2021/03/31 00:18:07;;;;;;;12.05;6.65;;;;;;;5.95;100.00;97034.06;1035632;28;20022;-57
2021/03/31 00:18:38;;;;;;;14.85;6.65;;;;;;;5.95;100.00;97028.78;1039776;28;20018;-56
2021/03/31 00:19:09;;;;;;;14.40;6.38;;;;;;;5.95;100.00;97038.50;1035786;28;20077;-58
2021/03/31 00:19:40;;;;;;;10.85;6.30;;;;;;;5.94;100.00;97037.69;1035717;28;20462;-56
2021/03/31 00:20:14;;;;;;;12.43;6.50;;;;;;;5.93;100.00;97033.34;1035511;28;20105;-56
2021/03/31 00:20:45;;;;;;;15.75;7.25;;;;;;;5.92;100.00;97033.47;1031439;28;20065;-63
2021/03/31 00:21:16;;;;;;;11.43;6.13;;;;;;;5.91;100.00;97037.06;1035566;28;20068;-57
2021/03/31 00:21:47;;;;;;;13.45;6.13;;;;;;;5.90;100.00;97030.13;1035579;28;20018;-58
2021/03/31 00:22:18;;;;;;;13.38;6.35;;;;;;;5.89;100.00;97029.28;1035479;28;20017;-57
2021/03/31 00:22:48;;;;;;;15.50;6.75;;;;;;;5.88;100.00;97035.50;1043793;28;20013;-57
2021/03/31 00:23:21;;;;;;;12.25;6.30;;;;;;;5.88;100.00;97029.41;1035620;28;20025;-57
2021/03/31 00:23:52;;;;;;;14.15;6.63;;;;;;;5.86;100.00;97029.50;1035410;28;20065;-56
2021/03/31 00:24:23;;;;;;;13.77;5.95;;;;;;;5.85;100.00;97028.69;1035653;28;20030;-58
2021/03/31 00:24:54;;;;;;;14.23;6.47;;;;;;;5.79;100.00;97018.59;1031587;28;20413;-57
2021/03/31 00:25:25;;;;;;;13.75;6.13;;;;;;;5.81;100.00;97026.41;1031624;28;20026;-57
2021/03/31 00:25:55;;;;;;;14.43;6.03;;;;;;;5.80;100.00;97027.34;1039716;28;20491;-58
2021/03/31 00:26:26;;;;;;;14.38;6.53;;;;;;;5.80;100.00;97029.97;1031497;28;20022;-57
2021/03/31 00:26:57;;;;;;;12.95;6.35;;;;;;;5.79;100.00;97028.31;1031592;28;20019;-57
2021/03/31 00:27:27;;;;;;;14.68;5.95;;;;;;;5.79;100.00;97023.06;1031591;28;20022;-58
2021/03/31 00:27:58;;;;;;;17.38;7.13;;;;;;;5.79;100.00;97028.31;1035780;28;20022;-57
2021/03/31 00:28:29;;;;;;;11.60;6.20;;;;;;;5.76;100.00;97015.38;1043746;28;20025;-55
2021/03/31 00:29:00;;;;;;;15.45;6.60;;;;;;;5.75;100.00;97022.44;1031597;28;20018;-58
2021/03/31 00:29:31;;;;;;;21.88;6.97;;;;;;;5.75;100.00;97018.97;1031731;28;20019;-57
2021/03/31 00:30:03;;;;;;;14.38;7.07;;;;;;;5.74;100.00;97015.50;1031584;28;20014;-57
2021/03/31 00:30:34;;;;;;;13.27;6.38;;;;;;;5.74;100.00;97020.75;1031421;28;20076;-56
2021/03/31 00:31:05;;;;;;;12.95;6.13;;;;;;;5.74;100.00;97022.56;1035645;28;20026;-57
2021/03/31 00:31:36;;;;;;;15.20;6.47;;;;;;;5.74;100.00;97019.94;1035648;28;20021;-57
2021/03/31 00:32:07;;;;;;;11.75;6.38;;;;;;;5.73;100.00;97019.09;1035661;28;20017;-57
2021/03/31 00:32:38;;;;;;;11.02;6.18;;;;;;;5.71;100.00;97015.72;1039567;28;20037;-57
2021/03/31 00:33:09;;;;;;;13.98;6.38;;;;;;;5.71;100.00;97023.63;1039697;28;20122;-57
2021/03/31 00:33:40;;;;;;;13.88;6.72;;;;;;;5.71;100.00;97014.88;1039548;28;20009;-58
2021/03/31 00:34:11;;;;;;;14.88;6.28;;;;;;;5.71;100.00;97028.06;1035698;28;20262;-56
2021/03/31 00:34:42;;;;;;;13.32;6.65;;;;;;;5.69;100.00;97020.28;1031434;28;20018;-57
2021/03/31 00:35:13;;;;;;;10.32;5.72;;;;;;;5.69;100.00;97022.09;1035727;28;20033;-57
2021/03/31 00:35:43;;;;;;;12.48;6.28;;;;;;;5.67;100.00;97024.84;1039778;28;20550;-58
2021/03/31 00:36:14;;;;;;;17.42;6.60;;;;;;;5.65;100.00;97024.94;1031632;28;20018;-56
2021/03/31 00:36:45;;;;;;;13.48;6.30;;;;;;;5.65;100.00;97014.41;1031489;28;20106;-57
2021/03/31 00:37:15;;;;;;;11.73;5.75;;;;;;;5.66;100.00;97023.19;1031792;28;20098;-58
2021/03/31 00:37:46;;;;;;;11.80;5.93;;;;;;;5.64;100.00;97020.66;1035824;28;20466;-57
2021/03/31 00:38:17;;;;;;;17.42;6.72;;;;;;;5.61;100.00;97018.25;1031542;28;20401;-57
2021/03/31 00:38:47;;;;;;;9.95;5.47;;;;;;;5.62;100.00;97016.44;1035635;28;20026;-57
2021/03/31 00:39:18;;;;;;;12.57;6.38;;;;;;;5.62;100.00;97017.28;1035592;28;20391;-57
2021/03/31 00:39:49;;;;;;;16.80;7.03;;;;;;;5.62;100.00;97019.06;1039694;28;20009;-58
2021/03/31 00:40:20;;;;;;;15.82;7.47;;;;;;;5.62;100.00;97016.44;1035606;28;20496;-57
2021/03/31 00:40:52;;;;;;;15.23;6.15;;;;;;;5.59;100.00;97011.41;1035481;28;20025;-57
2021/03/31 00:41:23;;;;;;;11.60;5.97;;;;;;;5.62;100.00;97021.72;1031609;28;20084;-57
2021/03/31 00:41:53;;;;;;;14.82;7.35;;;;;;;5.62;100.00;97019.06;1035658;28;20087;-57
2021/03/31 00:42:24;;;;;;;15.77;7.63;;;;;;;5.61;100.00;97017.41;1031599;28;20558;-58
2021/03/31 00:42:55;;;;;;;11.32;6.15;;;;;;;5.61;100.00;97020.06;1035578;28;20045;-57
2021/03/31 00:43:26;;;;;;;17.65;7.05;;;;;;;5.60;100.00;97016.56;1035548;28;20503;-58
2021/03/31 00:43:56;;;;;;;13.30;6.85;;;;;;;5.61;100.00;97017.41;1035269;28;20083;-56
2021/03/31 00:44:28;;;;;;;12.70;6.75;;;;;;;5.53;100.00;97006.63;1035611;28;20088;-57
2021/03/31 00:44:59;;;;;;;13.05;6.47;;;;;;;5.59;100.00;97016.66;1039692;28;20014;-58
2021/03/31 00:45:29;;;;;;;13.50;7.03;;;;;;;5.59;100.00;97016.66;1035644;28;20022;-57
2021/03/31 00:46:00;;;;;;;14.63;6.95;;;;;;;5.58;100.00;97012.38;1039650;28;20017;-57
2021/03/31 00:46:31;;;;;;;11.77;6.60;;;;;;;5.46;100.00;96996.53;1035633;28;20036;-57
2021/03/31 00:47:02;;;;;;;14.65;7.30;;;;;;;5.56;100.00;97024.84;1039630;28;20018;-57
2021/03/31 00:47:33;;;;;;;14.68;6.65;;;;;;;5.56;100.00;97022.19;1035692;28;20048;-56
2021/03/31 00:48:04;;;;;;;10.85;6.90;;;;;;;5.55;100.00;97016.06;1039708;28;20537;-58
2021/03/31 00:48:36;;;;;;;12.30;6.85;;;;;;;5.56;100.00;97022.19;1035733;28;20480;-57
2021/03/31 00:49:06;;;;;;;15.15;7.25;;;;;;;5.54;100.00;97014.41;1031458;28;20025;-57
2021/03/31 00:49:37;;;;;;;13.65;6.50;;;;;;;5.53;100.00;97009.25;1031605;28;20452;-57
2021/03/31 00:50:10;;;;;;;15.48;6.57;;;;;;;5.53;100.00;97019.78;1035745;28;20022;-57
2021/03/31 00:50:43;;;;;;;14.90;6.93;;;;;;;5.50;100.00;97023.50;1039537;28;20020;-57
2021/03/31 00:51:14;;;;;;;14.38;7.10;;;;;;;5.52;100.00;97020.75;1035453;28;20123;-57
2021/03/31 00:51:45;;;;;;;16.27;6.60;;;;;;;5.44;100.00;97011.63;1039753;28;20021;-56
2021/03/31 00:52:15;;;;;;;13.63;7.00;;;;;;;5.51;100.00;97014.63;1039592;28;20037;-57
2021/03/31 00:52:48;;;;;;;18.35;7.82;;;;;;;5.51;100.00;97019.09;1031597;28;20027;-59
2021/03/31 00:53:22;;;;;;;14.82;7.03;;;;;;;5.50;100.00;97017.38;1031458;28;20026;-58
2021/03/31 00:53:53;;;;;;;13.20;7.13;;;;;;;5.47;100.00;97018.47;1039451;28;20395;-56
2021/03/31 00:54:24;;;;;;;17.15;7.38;;;;;;;5.46;100.00;97016.78;1035550;28;20018;-57
2021/03/31 00:54:54;;;;;;;14.48;7.05;;;;;;;5.44;100.00;97014.28;1039769;28;20042;-57
2021/03/31 00:55:27;;;;;;;15.18;6.93;;;;;;;5.46;100.00;97012.34;1031418;28;20424;-58
2021/03/31 00:55:58;;;;;;;21.88;7.65;;;;;;;5.46;100.00;97017.63;1031541;28;20675;-57
2021/03/31 00:56:30;;;;;;;15.60;7.50;;;;;;;5.46;100.00;97019.41;1035585;28;20018;-56
2021/03/31 00:57:01;;;;;;;17.55;7.75;;;;;;;5.45;100.00;97015.97;1027473;28;20030;-58
2021/03/31 00:57:32;;;;;;;14.30;7.32;;;;;;;5.45;100.00;97015.09;1027509;28;20388;-56
2021/03/31 00:58:03;;;;;;;15.50;8.00;;;;;;;5.44;100.00;97014.28;1035469;28;20570;-57
2021/03/31 00:58:33;;;;;;;16.65;7.55;;;;;;;5.44;100.00;97009.00;1043759;28;20103;-55
2021/03/31 00:59:04;;;;;;;13.77;6.53;;;;;;;5.43;100.00;97020.50;1031481;28;20634;-55
2021/03/31 00:59:35;;;;;;;16.23;7.20;;;;;;;5.43;100.00;97012.59;1039547;28;20443;-56
2021/03/31 01:00:09;;;;;;;13.15;7.03;;;;;;;5.41;100.00;97014.50;1039639;28;20041;-57
2021/03/31 01:00:40;;;;;;;16.90;7.97;;;;;;;5.41;100.00;97011.88;1039538;28;20021;-56
2021/03/31 01:01:11;;;;;;;13.82;7.30;;;;;;;5.40;100.00;97007.56;1036047;28;20041;-57
2021/03/31 01:01:43;;;;;;;15.10;7.30;;;;;;;5.39;100.00;97010.31;1040249;28;20392;-56
2021/03/31 01:02:13;;;;;;;15.38;7.38;;;;;;;5.39;100.00;97008.50;1040409;28;20014;-56
2021/03/31 01:02:44;;;;;;;13.38;7.25;;;;;;;5.39;100.00;97010.31;1040358;28;20028;-56
2021/03/31 01:03:15;;;;;;;12.05;7.32;;;;;;;5.39;100.00;97002.41;1036388;28;20014;-57
2021/03/31 01:03:45;;;;;;;16.25;7.18;;;;;;;5.38;100.00;97009.50;1035963;28;20061;-57
2021/03/31 01:04:16;;;;;;;15.52;8.15;;;;;;;5.36;100.00;97008.75;1028242;28;20038;-57
2021/03/31 01:04:47;;;;;;;15.80;7.20;;;;;;;5.36;100.00;97005.28;1032326;28;20057;-57
2021/03/31 01:05:19;;;;;;;11.32;6.50;;;;;;;5.31;100.00;97008.25;1028259;28;20023;-56
2021/03/31 01:05:49;;;;;;;13.52;6.90;;;;;;;5.32;100.00;97007.31;1028176;28;20081;-56
2021/03/31 01:06:20;;;;;;;13.25;6.85;;;;;;;5.32;100.00;97007.31;1036323;28;20148;-56
2021/03/31 01:06:51;;;;;;;13.48;6.82;;;;;;;5.32;100.00;97006.47;1036338;28;20017;-58
2021/03/31 01:07:22;;;;;;;15.00;6.70;;;;;;;5.31;100.00;97004.78;1032343;28;20084;-55
2021/03/31 01:07:53;;;;;;;17.85;7.40;;;;;;;5.29;100.00;97007.53;1036309;28;20088;-58
2021/03/31 01:08:24;;;;;;;14.05;7.68;;;;;;;5.29;100.00;97007.53;1036224;28;20022;-56
2021/03/31 01:08:54;;;;;;;14.30;7.05;;;;;;;5.28;100.00;97003.25;1032388;28;20494;-56
2021/03/31 01:09:25;;;;;;;13.93;6.40;;;;;;;5.28;100.00;97011.13;1032221;28;20056;-57
2021/03/31 01:09:56;;;;;;;14.45;6.68;;;;;;;5.26;100.00;97000.72;1036155;28;20026;-56
2021/03/31 01:10:31;;;;;;;11.32;6.18;;;;;;;5.25;100.00;97006.09;1032313;28;20022;-56
2021/03/31 01:11:01;;;;;;;15.52;7.55;;;;;;;5.21;100.00;97005.50;1028221;28;20031;-57
2021/03/31 01:11:47;;;;;;;10.88;6.85;;;;;;;5.23;100.00;97008.00;1040500;28;20075;-56
2021/03/31 01:12:38;;;;;;;15.10;6.85;;;;;;;5.23;100.00;97006.22;1036378;28;20025;-55
2021/03/31 01:13:22;;;;;;;16.60;7.07;;;;;;;5.23;100.00;97006.22;1032339;28;20117;-56
2021/03/31 01:14:12;;;;;;;16.17;7.45;;;;;;;5.23;100.00;97008.00;1036606;28;20387;-56
2021/03/31 01:14:56;;;;;;;13.38;6.30;;;;;;;5.22;100.00;97012.41;1036865;28;20391;-56
2021/03/31 01:15:28;;;;;;;16.85;7.07;;;;;;;5.24;100.00;97012.31;1037482;28;20025;-56
2021/03/31 01:16:19;;;;;;;13.00;6.90;;;;;;;5.22;100.00;97009.78;1037233;28;20101;-55
2021/03/31 01:16:50;;;;;;;17.52;7.38;;;;;;;5.17;100.00;97006.66;1041063;28;20021;-57
2021/03/31 01:17:32;;;;;;;14.23;7.60;;;;;;;5.20;100.00;97009.06;1041196;28;20052;-57
2021/03/31 01:18:18;;;;;;;15.77;7.97;;;;;;;5.21;100.00;97007.28;1042080;28;20056;-58
2021/03/31 01:18:59;;;;;;;15.85;8.18;;;;;;;5.18;100.00;97007.53;1038660;28;20018;-57
2021/03/31 01:19:44;;;;;;;15.95;7.60;;;;;;;5.18;100.00;97010.16;1038552;28;20018;-58
2021/03/31 01:20:31;;;;;;;12.93;7.05;;;;;;;5.16;100.00;97006.81;1034327;28;20026;-56
2021/03/31 01:21:12;;;;;;;16.08;7.68;;;;;;;5.14;100.00;97004.28;1038342;28;20017;-57
2021/03/31 01:22:00;;;;;;;15.88;7.05;;;;;;;5.13;100.00;97002.59;1036305;28;20069;-56
2021/03/31 01:22:42;;;;;;;13.10;7.13;;;;;;;5.10;100.00;97006.31;1044367;28;20023;-57
2021/03/31 01:23:31;;;;;;;12.98;6.80;;;;;;;5.09;100.00;96999.34;1040415;28;20018;-57
2021/03/31 01:24:19;;;;;;;12.27;7.40;;;;;;;5.06;100.00;96999.56;1032162;28;20284;-57
2021/03/31 01:25:02;;;;;;;18.45;7.55;;;;;;;5.05;100.00;97007.59;1040965;28;20072;-57
2021/03/31 01:25:43;;;;;;;17.40;7.13;;;;;;;5.02;100.00;97000.78;1040600;28;20017;-57
2021/03/31 01:26:23;;;;;;;17.08;7.75;;;;;;;4.97;100.00;96997.66;1036253;28;20080;-56
2021/03/31 01:27:05;;;;;;;12.77;6.93;;;;;;;4.96;100.00;97001.22;1032178;28;20026;-57
2021/03/31 01:27:56;;;;;;;13.07;6.75;;;;;;;4.94;100.00;97000.50;1032225;28;20018;-56
2021/03/31 01:28:34;;;;;;;14.27;6.90;;;;;;;4.90;100.00;96999.06;1028353;28;20014;-57
2021/03/31 01:29:14;;;;;;;15.75;7.15;;;;;;;4.91;100.00;96995.47;1032144;28;20018;-57
2021/03/31 01:30:02;;;;;;;13.60;7.75;;;;;;;4.91;100.00;97003.34;1040354;28;20095;-55
2021/03/31 01:30:46;;;;;;;17.25;6.97;;;;;;;4.92;100.00;96997.16;1040312;28;20029;-57
2021/03/31 01:31:28;;;;;;;14.77;7.53;;;;;;;4.89;100.00;97000.88;1036415;28;20030;-56
2021/03/31 01:32:03;;;;;;;17.85;7.18;;;;;;;4.89;100.00;97005.25;1036018;28;20430;-56
2021/03/31 01:32:35;;;;;;;14.18;7.45;;;;;;;4.94;100.00;97004.94;1040312;28;20048;-58
2021/03/31 01:33:26;;;;;;;16.13;8.57;;;;;;;4.94;100.00;96999.66;1040152;28;20022;-56
2021/03/31 01:34:10;;;;;;;17.55;7.72;;;;;;;4.96;100.00;97003.84;1035815;28;20017;-57
2021/03/31 01:34:43;;;;;;;16.80;7.25;;;;;;;4.96;100.00;96997.75;1036590;28;20020;-58
2021/03/31 01:35:15;;;;;;;14.10;6.75;;;;;;;4.95;100.00;97001.38;1036151;28;20546;-57
2021/03/31 01:35:46;;;;;;;15.95;7.63;;;;;;;4.92;100.00;97002.41;1028031;28;20018;-56
2021/03/31 01:36:17;;;;;;;16.30;7.93;;;;;;;4.93;100.00;97000.59;1040309;28;20483;-58
2021/03/31 01:36:49;;;;;;;18.88;8.77;;;;;;;4.90;100.00;96999.06;1044399;28;20027;-57
2021/03/31 01:37:23;;;;;;;13.88;7.65;;;;;;;4.89;100.00;96994.75;1036208;28;20050;-57
2021/03/31 01:37:55;;;;;;;13.38;7.10;;;;;;;4.89;100.00;96998.22;1032044;28;20499;-57
2021/03/31 01:38:26;;;;;;;16.42;7.57;;;;;;;4.86;100.00;96990.56;1034278;28;20021;-59
2021/03/31 01:39:00;;;;;;;14.90;8.70;;;;;;;4.86;100.00;96994.97;1036074;28;20423;-57
2021/03/31 01:39:31;;;;;;;16.08;7.90;;;;;;;4.80;100.00;96983.09;1036214;28;20033;-56
2021/03/31 01:40:04;;;;;;;18.15;7.18;;;;;;;4.82;100.00;96991.72;1040168;28;20018;-57
2021/03/31 01:40:36;;;;;;;18.00;8.70;;;;;;;4.81;100.00;96990.06;1040161;28;20021;-55
2021/03/31 01:41:07;;;;;;;18.95;8.35;;;;;;;4.85;100.00;96995.94;1032154;28;20491;-57
2021/03/31 01:41:37;;;;;;;15.73;8.93;;;;;;;4.85;100.00;96994.13;1032040;28;20026;-56
2021/03/31 01:42:09;;;;;;;17.52;8.43;;;;;;;4.86;100.00;96992.31;1036095;28;20022;-56
2021/03/31 01:42:44;;;;;;;15.23;7.47;;;;;;;4.87;100.00;96991.38;1040179;28;20022;-57
2021/03/31 01:43:17;;;;;;;15.90;7.90;;;;;;;4.85;100.00;96994.13;1032087;28;20027;-57
2021/03/31 01:43:50;;;;;;;18.30;8.38;;;;;;;4.86;100.00;96992.31;1036061;28;20038;-57
2021/03/31 01:44:21;;;;;;;14.38;7.57;;;;;;;4.83;100.00;96993.41;1040116;28;20036;-57
2021/03/31 01:44:55;;;;;;;14.82;7.82;;;;;;;4.84;100.00;96999.50;1032122;28;20060;-54
2021/03/31 01:45:30;;;;;;;18.08;7.85;;;;;;;4.83;100.00;97001.31;1036241;28;20518;-57
2021/03/31 01:46:01;;;;;;;19.10;8.02;;;;;;;4.82;100.00;97001.41;1027980;28;20048;-56
2021/03/31 01:46:32;;;;;;;15.27;8.52;;;;;;;4.81;100.00;96994.50;1032085;28;20022;-55
2021/03/31 01:47:03;;;;;;;16.02;8.00;;;;;;;4.81;100.00;96994.50;1032121;28;20420;-56
2021/03/31 01:47:36;;;;;;;19.25;8.80;;;;;;;4.81;100.00;96994.50;1032044;28;20145;-57
2021/03/31 01:48:11;;;;;;;22.13;8.40;;;;;;;4.79;100.00;96996.38;1032007;28;20021;-58
2021/03/31 01:48:51;;;;;;;15.90;7.80;;;;;;;4.78;100.00;96986.81;1032093;28;20046;-56
2021/03/31 01:49:24;;;;;;;15.82;8.10;;;;;;;4.76;100.00;96994.00;1028073;28;20030;-58
2021/03/31 01:49:55;;;;;;;14.45;8.00;;;;;;;4.73;100.00;96995.03;1032053;28;20116;-57
2021/03/31 01:50:26;;;;;;;18.02;8.88;;;;;;;4.73;100.00;96995.88;1032022;28;20053;-57
2021/03/31 01:51:01;;;;;;;11.65;7.25;;;;;;;4.72;100.00;96993.38;1027914;28;20025;-57
2021/03/31 01:51:32;;;;;;;17.52;9.05;;;;;;;4.70;100.00;96990.88;1032038;28;20024;-57
2021/03/31 01:52:03;;;;;;;16.98;8.40;;;;;;;4.67;100.00;96985.00;1036104;28;20040;-57
2021/03/31 01:52:35;;;;;;;14.25;7.95;;;;;;;4.69;100.00;96997.06;1035977;28;20120;-56
2021/03/31 01:53:06;;;;;;;18.23;7.93;;;;;;;4.70;100.00;96987.38;1032040;28;20400;-57
2021/03/31 01:53:37;;;;;;;14.48;8.60;;;;;;;4.70;100.00;96992.63;1027785;28;20027;-55
2021/03/31 01:54:08;;;;;;;14.18;8.93;;;;;;;4.70;100.00;96990.88;1036069;28;20522;-57
2021/03/31 01:54:41;;;;;;;17.80;8.82;;;;;;;4.68;100.00;96990.09;1036096;28;20566;-57
2021/03/31 01:55:14;;;;;;;18.40;8.27;;;;;;;4.67;100.00;96988.44;1032007;28;20034;-57
2021/03/31 01:55:49;;;;;;;17.95;8.27;;;;;;;4.67;100.00;96993.72;1040143;28;20175;-57
2021/03/31 01:56:19;;;;;;;14.50;7.88;;;;;;;4.66;100.00;96986.75;1036078;28;20396;-57
2021/03/31 01:56:50;;;;;;;14.95;7.80;;;;;;;4.65;100.00;96994.75;1036150;28;20057;-57
2021/03/31 01:57:22;;;;;;;17.85;7.85;;;;;;;4.64;100.00;96999.19;1040065;28;20031;-57
2021/03/31 01:57:53;;;;;;;13.48;8.05;;;;;;;4.64;100.00;96991.31;1044426;28;20021;-57
2021/03/31 01:58:26;;;;;;;14.52;7.78;;;;;;;4.62;100.00;96990.59;1040128;28;20034;-57
2021/03/31 01:58:57;;;;;;;14.23;8.18;;;;;;;4.63;100.00;96986.16;1035989;28;20084;-55
2021/03/31 01:59:28;;;;;;;13.77;8.23;;;;;;;4.62;100.00;96987.13;1032070;28;20113;-56
2021/03/31 01:59:58;;;;;;;12.85;7.82;;;;;;;4.62;100.00;96995.00;1036066;28;20018;-57
2021/03/31 02:00:31;;;;;;;12.70;7.75;;;;;;;4.61;100.00;96994.16;1036022;28;20022;-57
2021/03/31 02:01:02;;;;;;;20.73;8.35;;;;;;;4.61;100.00;96991.53;1036019;28;20399;-58
2021/03/31 02:01:33;;;;;;;16.23;8.52;;;;;;;4.60;100.00;96986.38;1032014;28;20046;-58
2021/03/31 02:02:05;;;;;;;18.08;8.65;;;;;;;4.60;100.00;96989.00;1036029;28;20018;-56
2021/03/31 02:02:36;;;;;;;15.57;8.70;;;;;;;4.59;100.00;96985.53;1036016;28;20017;-58
2021/03/31 02:03:07;;;;;;;15.73;8.82;;;;;;;4.58;100.00;96991.78;1036000;28;20496;-57
2021/03/31 02:03:38;;;;;;;16.77;7.90;;;;;;;4.58;100.00;96991.78;1035962;28;20014;-56
2021/03/31 02:04:08;;;;;;;17.30;8.02;;;;;;;4.57;100.00;96989.25;1032014;28;20027;-56
2021/03/31 02:04:40;;;;;;;22.08;9.43;;;;;;;4.56;100.00;96988.38;1035950;28;20126;-57
2021/03/31 02:05:11;;;;;;;19.45;8.52;;;;;;;4.53;100.00;96989.47;1036043;28;20018;-56
2021/03/31 02:05:42;;;;;;;14.23;7.53;;;;;;;4.52;100.00;96985.16;1040233;28;20013;-57
2021/03/31 02:06:12;;;;;;;19.40;8.30;;;;;;;4.52;100.00;96993.03;1032004;28;20077;-57
2021/03/31 02:06:43;;;;;;;15.85;8.43;;;;;;;4.50;100.00;96987.06;1044297;28;20013;-57
2021/03/31 02:07:14;;;;;;;17.50;7.88;;;;;;;4.51;100.00;96991.38;1031970;28;20654;-57
2021/03/31 02:07:45;;;;;;;19.35;9.50;;;;;;;4.48;100.00;96975.81;1032067;28;20019;-56
2021/03/31 02:08:16;;;;;;;16.75;8.68;;;;;;;4.49;100.00;96985.41;1032133;28;20022;-58
2021/03/31 02:08:47;;;;;;;16.83;8.82;;;;;;;4.48;100.00;96993.41;1036018;28;20550;-57
2021/03/31 02:09:18;;;;;;;15.95;8.13;;;;;;;4.46;100.00;96988.25;1027979;28;20023;-57
2021/03/31 02:09:49;;;;;;;17.75;8.57;;;;;;;4.45;100.00;96983.09;1032015;28;20076;-56
2021/03/31 02:10:21;;;;;;;20.98;8.63;;;;;;;4.44;100.00;96981.41;1040076;28;20091;-57
2021/03/31 02:10:52;;;;;;;15.15;7.95;;;;;;;4.43;100.00;96990.25;1036031;28;20014;-58
2021/03/31 02:11:25;;;;;;;14.90;8.65;;;;;;;4.39;100.00;96975.63;1035936;28;20543;-57
2021/03/31 02:11:56;;;;;;;15.20;8.43;;;;;;;4.42;100.00;96983.31;1031994;28;20029;-56
2021/03/31 02:12:27;;;;;;;17.55;8.77;;;;;;;4.38;100.00;96979.22;1035504;28;20109;-57
2021/03/31 02:12:58;;;;;;;17.52;8.32;;;;;;;4.39;100.00;96988.78;1031575;28;20068;-58
2021/03/31 02:13:29;;;;;;;14.88;8.25;;;;;;;4.38;100.00;96981.88;1035869;28;20014;-55
2021/03/31 02:14:00;;;;;;;15.82;7.72;;;;;;;4.37;100.00;96982.81;1039913;28;20023;-57
2021/03/31 02:14:33;;;;;;;15.02;8.07;;;;;;;4.38;100.00;96984.50;1036032;28;20017;-56
2021/03/31 02:15:05;;;;;;;15.55;8.75;;;;;;;4.38;100.00;96981.88;1040118;28;20021;-54
2021/03/31 02:15:36;;;;;;;18.25;9.20;;;;;;;4.37;100.00;96985.44;1039969;28;20017;-56
2021/03/31 02:16:07;;;;;;;15.75;8.15;;;;;;;4.37;100.00;96982.81;1031988;28;20098;-58
2021/03/31 02:16:38;;;;;;;18.85;8.43;;;;;;;4.36;100.00;96983.78;1036075;28;20101;-57
2021/03/31 02:17:10;;;;;;;23.63;8.52;;;;;;;4.37;100.00;96980.16;1040076;28;20021;-57
2021/03/31 02:17:40;;;;;;;17.38;8.32;;;;;;;4.33;100.00;96982.19;1035834;28;20029;-57
2021/03/31 02:18:13;;;;;;;20.10;8.13;;;;;;;4.33;100.00;96985.66;1027916;28;20481;-57
2021/03/31 02:18:44;;;;;;;14.10;8.43;;;;;;;4.37;100.00;96988.06;1032008;28;20054;-58
2021/03/31 02:19:22;;;;;;;17.25;8.63;;;;;;;4.36;100.00;96983.78;1031835;28;20574;-58
2021/03/31 02:19:53;;;;;;;16.30;8.57;;;;;;;4.36;100.00;96989.03;1031948;28;20029;-55
2021/03/31 02:20:24;;;;;;;18.05;8.52;;;;;;;4.37;100.00;96974.91;1036093;28;20093;-57
2021/03/31 02:20:54;;;;;;;15.45;8.20;;;;;;;4.36;100.00;96986.41;1036047;28;20499;-57
2021/03/31 02:21:26;;;;;;;18.23;8.35;;;;;;;4.33;100.00;96988.28;1031912;28;20097;-58
2021/03/31 02:21:56;;;;;;;14.65;8.38;;;;;;;4.33;100.00;96990.91;1031829;28;20034;-57
2021/03/31 02:22:27;;;;;;;16.67;8.38;;;;;;;4.32;100.00;96983.97;1031920;28;20046;-57
2021/03/31 02:22:58;;;;;;;19.08;8.45;;;;;;;4.31;100.00;96981.47;1036092;28;20013;-55
2021/03/31 02:23:29;;;;;;;14.82;8.25;;;;;;;4.29;100.00;96984.19;1039882;28;20021;-55
2021/03/31 02:23:59;;;;;;;14.63;7.82;;;;;;;4.29;100.00;96984.19;1039815;28;20079;-57
2021/03/31 02:24:30;;;;;;;13.77;7.78;;;;;;;4.28;100.00;96982.50;1031889;28;20025;-59
2021/03/31 02:25:03;;;;;;;16.20;8.80;;;;;;;4.28;100.00;96982.50;1036126;28;20499;-58
2021/03/31 02:25:34;;;;;;;14.57;8.05;;;;;;;4.29;100.00;96984.19;1031998;28;20018;-57
2021/03/31 02:26:04;;;;;;;18.55;8.60;;;;;;;4.30;100.00;96979.78;1035886;28;20010;-56
2021/03/31 02:26:35;;;;;;;14.18;8.05;;;;;;;4.30;100.00;96980.63;1035846;28;20100;-56
2021/03/31 02:27:07;;;;;;;18.92;8.70;;;;;;;4.29;100.00;96981.56;1040493;28;20036;-57
2021/03/31 02:27:38;;;;;;;19.00;8.50;;;;;;;4.28;100.00;96976.41;1036039;28;20104;-55
2021/03/31 02:28:08;;;;;;;15.43;8.90;;;;;;;4.27;100.00;96982.66;1031788;28;20025;-57
2021/03/31 02:28:40;;;;;;;16.27;8.50;;;;;;;4.27;100.00;96980.00;1027897;28;20026;-56
2021/03/31 02:29:10;;;;;;;15.57;8.93;;;;;;;4.27;100.00;96982.66;1027912;28;20381;-57
2021/03/31 02:29:44;;;;;;;20.40;9.18;;;;;;;4.26;100.00;96976.53;1028050;28;20019;-58
2021/03/31 02:30:17;;;;;;;16.23;8.90;;;;;;;4.26;100.00;96973.06;1031750;28;20046;-57
2021/03/31 02:30:48;;;;;;;17.70;8.32;;;;;;;4.26;100.00;96968.63;1036765;28;20415;-57
2021/03/31 02:31:19;;;;;;;16.88;8.55;;;;;;;4.26;100.00;96973.91;1031831;28;20125;-57
2021/03/31 02:31:50;;;;;;;14.88;8.60;;;;;;;4.25;100.00;96977.50;1035968;28;20029;-57
2021/03/31 02:32:22;;;;;;;16.35;8.82;;;;;;;4.25;100.00;96976.63;1035974;28;20527;-57